sensor_id;sensor_type;location;lat;lon;timestamp;temperature;humidity
25582;DHT22;13462;50.764;4.332;2022-11-21T00:00:52;7.20;99.90
25582;DHT22;13462;50.764;4.332;2022-11-21T00:03:18;7.20;99.90
25582;DHT22;13462;50.764;4.332;2022-11-21T00:05:45;7.10;99.90
25582;DHT22;13462;50.764;4.332;2022-11-21T00:08:13;7.10;99.90
25582;DHT22;13462;50.764;4.332;2022-11-21T00:10:40;7.00;99.90
25582;DHT22;13462;50.764;4.332;2022-11-21T00:13:10;6.90;99.90
25582;DHT22;13462;50.764;4.332;2022-11-21T00:15:36;6.80;99.90
25582;DHT22;13462;50.764;4.332;2022-11-21T00:18:03;6.90;99.90
25582;DHT22;13462;50.764;4.332;2022-11-21T00:20:28;6.90;99.90
25582;DHT22;13462;50.764;4.332;2022-11-21T00:22:54;6.80;99.90
25582;DHT22;13462;50.764;4.332;2022-11-21T00:25:20;6.70;99.90
25582;DHT22;13462;50.764;4.332;2022-11-21T00:27:46;6.60;99.90
25582;DHT22;13462;50.764;4.332;2022-11-21T00:30:12;6.60;99.90
25582;DHT22;13462;50.764;4.332;2022-11-21T00:32:38;6.50;99.90
25582;DHT22;13462;50.764;4.332;2022-11-21T00:35:04;6.50;99.90
25582;DHT22;13462;50.764;4.332;2022-11-21T00:37:34;6.50;99.90
25582;DHT22;13462;50.764;4.332;2022-11-21T00:39:59;6.50;99.90
25582;DHT22;13462;50.764;4.332;2022-11-21T00:42:25;6.40;99.90
25582;DHT22;13462;50.764;4.332;2022-11-21T00:44:51;6.40;99.90
25582;DHT22;13462;50.764;4.332;2022-11-21T00:47:17;6.40;99.90
25582;DHT22;13462;50.764;4.332;2022-11-21T00:49:43;6.40;99.90
25582;DHT22;13462;50.764;4.332;2022-11-21T00:52:08;6.40;99.90
25582;DHT22;13462;50.764;4.332;2022-11-21T00:54:34;6.40;99.90
25582;DHT22;13462;50.764;4.332;2022-11-21T00:57:00;6.30;99.90
25582;DHT22;13462;50.764;4.332;2022-11-21T00:59:25;6.30;99.90
25582;DHT22;13462;50.764;4.332;2022-11-21T01:01:51;6.20;99.90
25582;DHT22;13462;50.764;4.332;2022-11-21T01:04:17;6.20;99.90
25582;DHT22;13462;50.764;4.332;2022-11-21T01:06:43;6.20;99.90
25582;DHT22;13462;50.764;4.332;2022-11-21T01:09:08;6.20;99.90
25582;DHT22;13462;50.764;4.332;2022-11-21T01:11:34;6.20;99.90
25582;DHT22;13462;50.764;4.332;2022-11-21T01:14:00;6.20;99.90
25582;DHT22;13462;50.764;4.332;2022-11-21T01:16:27;6.20;99.90
25582;DHT22;13462;50.764;4.332;2022-11-21T01:18:53;6.30;99.90
25582;DHT22;13462;50.764;4.332;2022-11-21T01:21:25;6.40;99.90
25582;DHT22;13462;50.764;4.332;2022-11-21T01:23:52;6.40;99.90
25582;DHT22;13462;50.764;4.332;2022-11-21T01:26:23;6.30;99.90
25582;DHT22;13462;50.764;4.332;2022-11-21T01:28:49;6.40;99.90
25582;DHT22;13462;50.764;4.332;2022-11-21T01:31:38;6.50;99.90
25582;DHT22;13462;50.764;4.332;2022-11-21T01:34:04;6.50;99.90
25582;DHT22;13462;50.764;4.332;2022-11-21T01:36:43;6.50;99.90
25582;DHT22;13462;50.764;4.332;2022-11-21T01:39:44;6.50;99.90
25582;DHT22;13462;50.764;4.332;2022-11-21T01:42:11;6.60;99.90
25582;DHT22;13462;50.764;4.332;2022-11-21T01:47:11;6.80;99.90
25582;DHT22;13462;50.764;4.332;2022-11-21T01:49:39;6.70;99.90
25582;DHT22;13462;50.764;4.332;2022-11-21T01:52:26;6.70;99.90
25582;DHT22;13462;50.764;4.332;2022-11-21T01:55:08;6.70;99.90
25582;DHT22;13462;50.764;4.332;2022-11-21T01:57:44;6.70;99.90
25582;DHT22;13462;50.764;4.332;2022-11-21T02:00:25;6.70;99.90
25582;DHT22;13462;50.764;4.332;2022-11-21T02:02:54;6.70;99.90
25582;DHT22;13462;50.764;4.332;2022-11-21T02:05:24;6.80;99.90
25582;DHT22;13462;50.764;4.332;2022-11-21T02:07:52;6.90;99.90
25582;DHT22;13462;50.764;4.332;2022-11-21T02:10:19;6.90;99.90
25582;DHT22;13462;50.764;4.332;2022-11-21T02:12:51;6.80;99.90
25582;DHT22;13462;50.764;4.332;2022-11-21T02:15:22;6.80;99.90
25582;DHT22;13462;50.764;4.332;2022-11-21T02:17:48;7.00;99.90
25582;DHT22;13462;50.764;4.332;2022-11-21T02:20:18;6.90;99.90
25582;DHT22;13462;50.764;4.332;2022-11-21T02:26:10;6.90;99.90
25582;DHT22;13462;50.764;4.332;2022-11-21T02:28:39;6.90;99.90
25582;DHT22;13462;50.764;4.332;2022-11-21T02:31:05;6.80;99.90
25582;DHT22;13462;50.764;4.332;2022-11-21T02:33:31;6.80;99.90
25582;DHT22;13462;50.764;4.332;2022-11-21T02:36:01;6.70;99.90
25582;DHT22;13462;50.764;4.332;2022-11-21T02:38:31;6.70;99.90
25582;DHT22;13462;50.764;4.332;2022-11-21T02:41:12;6.50;99.90
25582;DHT22;13462;50.764;4.332;2022-11-21T02:43:45;6.40;99.90
25582;DHT22;13462;50.764;4.332;2022-11-21T02:46:12;6.40;99.90
25582;DHT22;13462;50.764;4.332;2022-11-21T02:48:38;6.50;99.90
25582;DHT22;13462;50.764;4.332;2022-11-21T02:51:04;6.40;99.90
25582;DHT22;13462;50.764;4.332;2022-11-21T02:53:29;6.30;99.90
25582;DHT22;13462;50.764;4.332;2022-11-21T02:55:58;6.30;99.90
25582;DHT22;13462;50.764;4.332;2022-11-21T02:58:23;6.20;99.90
25582;DHT22;13462;50.764;4.332;2022-11-21T03:00:49;6.30;99.90
25582;DHT22;13462;50.764;4.332;2022-11-21T03:03:15;6.30;99.90
25582;DHT22;13462;50.764;4.332;2022-11-21T03:05:41;6.30;99.90
25582;DHT22;13462;50.764;4.332;2022-11-21T03:08:07;6.30;99.90
25582;DHT22;13462;50.764;4.332;2022-11-21T03:10:32;6.40;99.90
25582;DHT22;13462;50.764;4.332;2022-11-21T03:12:58;6.40;99.90
25582;DHT22;13462;50.764;4.332;2022-11-21T03:15:32;6.40;99.90
25582;DHT22;13462;50.764;4.332;2022-11-21T03:17:59;6.30;99.90
25582;DHT22;13462;50.764;4.332;2022-11-21T03:20:27;6.40;99.90
25582;DHT22;13462;50.764;4.332;2022-11-21T03:22:53;6.50;99.90
25582;DHT22;13462;50.764;4.332;2022-11-21T03:25:22;6.40;99.90
25582;DHT22;13462;50.764;4.332;2022-11-21T03:27:52;6.30;99.90
25582;DHT22;13462;50.764;4.332;2022-11-21T03:30:22;6.30;99.90
25582;DHT22;13462;50.764;4.332;2022-11-21T03:32:53;6.30;99.90
25582;DHT22;13462;50.764;4.332;2022-11-21T03:35:19;6.40;99.90
25582;DHT22;13462;50.764;4.332;2022-11-21T03:37:47;6.30;99.90
25582;DHT22;13462;50.764;4.332;2022-11-21T03:40:13;6.20;99.90
25582;DHT22;13462;50.764;4.332;2022-11-21T03:42:38;6.20;99.90
25582;DHT22;13462;50.764;4.332;2022-11-21T03:45:04;6.30;99.90
25582;DHT22;13462;50.764;4.332;2022-11-21T03:47:31;6.30;99.90
25582;DHT22;13462;50.764;4.332;2022-11-21T03:49:57;6.30;99.90
25582;DHT22;13462;50.764;4.332;2022-11-21T03:52:22;6.30;99.90
25582;DHT22;13462;50.764;4.332;2022-11-21T03:54:48;6.20;99.90
25582;DHT22;13462;50.764;4.332;2022-11-21T03:57:14;6.20;99.90
25582;DHT22;13462;50.764;4.332;2022-11-21T03:59:40;6.20;99.90
25582;DHT22;13462;50.764;4.332;2022-11-21T04:02:05;6.20;99.90
25582;DHT22;13462;50.764;4.332;2022-11-21T04:04:33;6.30;99.90
25582;DHT22;13462;50.764;4.332;2022-11-21T04:07:02;6.30;99.90
25582;DHT22;13462;50.764;4.332;2022-11-21T04:09:28;6.20;99.90
25582;DHT22;13462;50.764;4.332;2022-11-21T04:11:53;6.30;99.90
25582;DHT22;13462;50.764;4.332;2022-11-21T04:14:19;6.40;99.90
25582;DHT22;13462;50.764;4.332;2022-11-21T04:16:48;6.40;99.90
25582;DHT22;13462;50.764;4.332;2022-11-21T04:19:14;6.40;99.90
25582;DHT22;13462;50.764;4.332;2022-11-21T04:21:39;6.50;99.90
25582;DHT22;13462;50.764;4.332;2022-11-21T04:24:05;6.50;99.90
25582;DHT22;13462;50.764;4.332;2022-11-21T04:26:31;6.50;99.90
25582;DHT22;13462;50.764;4.332;2022-11-21T04:28:57;6.40;99.90
25582;DHT22;13462;50.764;4.332;2022-11-21T04:31:22;6.40;99.90
25582;DHT22;13462;50.764;4.332;2022-11-21T04:33:48;6.50;99.90
25582;DHT22;13462;50.764;4.332;2022-11-21T04:36:13;6.40;99.90
25582;DHT22;13462;50.764;4.332;2022-11-21T04:38:40;6.40;99.90
25582;DHT22;13462;50.764;4.332;2022-11-21T04:41:05;6.30;99.90
25582;DHT22;13462;50.764;4.332;2022-11-21T04:43:31;6.30;99.90
25582;DHT22;13462;50.764;4.332;2022-11-21T04:45:56;6.10;99.90
25582;DHT22;13462;50.764;4.332;2022-11-21T04:48:22;6.00;99.90
25582;DHT22;13462;50.764;4.332;2022-11-21T04:50:51;6.00;99.90
25582;DHT22;13462;50.764;4.332;2022-11-21T04:53:16;6.00;99.90
25582;DHT22;13462;50.764;4.332;2022-11-21T04:55:42;5.90;99.90
25582;DHT22;13462;50.764;4.332;2022-11-21T04:58:08;5.80;99.90
25582;DHT22;13462;50.764;4.332;2022-11-21T05:00:34;5.70;99.90
25582;DHT22;13462;50.764;4.332;2022-11-21T05:03:04;5.70;99.90
25582;DHT22;13462;50.764;4.332;2022-11-21T05:05:30;5.70;99.90
25582;DHT22;13462;50.764;4.332;2022-11-21T05:07:56;5.80;99.90
25582;DHT22;13462;50.764;4.332;2022-11-21T05:10:21;5.80;99.90
25582;DHT22;13462;50.764;4.332;2022-11-21T05:12:47;5.80;99.90
25582;DHT22;13462;50.764;4.332;2022-11-21T05:15:31;5.70;99.90
25582;DHT22;13462;50.764;4.332;2022-11-21T05:18:00;5.70;99.90
25582;DHT22;13462;50.764;4.332;2022-11-21T05:20:29;5.60;99.90
25582;DHT22;13462;50.764;4.332;2022-11-21T05:22:54;5.60;99.90
25582;DHT22;13462;50.764;4.332;2022-11-21T05:25:20;5.60;99.90
25582;DHT22;13462;50.764;4.332;2022-11-21T05:27:46;5.50;99.90
25582;DHT22;13462;50.764;4.332;2022-11-21T05:30:12;5.60;99.90
25582;DHT22;13462;50.764;4.332;2022-11-21T05:32:38;5.50;99.90
25582;DHT22;13462;50.764;4.332;2022-11-21T05:35:04;5.50;99.90
25582;DHT22;13462;50.764;4.332;2022-11-21T05:37:32;5.30;99.90
25582;DHT22;13462;50.764;4.332;2022-11-21T05:39:58;5.20;99.90
25582;DHT22;13462;50.764;4.332;2022-11-21T05:42:24;5.20;99.90
25582;DHT22;13462;50.764;4.332;2022-11-21T05:45:08;5.30;99.90
25582;DHT22;13462;50.764;4.332;2022-11-21T05:47:37;5.20;99.90
25582;DHT22;13462;50.764;4.332;2022-11-21T05:50:05;5.10;99.90
25582;DHT22;13462;50.764;4.332;2022-11-21T05:52:31;5.20;99.90
25582;DHT22;13462;50.764;4.332;2022-11-21T05:54:57;5.20;99.90
25582;DHT22;13462;50.764;4.332;2022-11-21T05:57:43;5.20;99.90
25582;DHT22;13462;50.764;4.332;2022-11-21T06:00:09;5.20;99.90
25582;DHT22;13462;50.764;4.332;2022-11-21T06:02:44;5.10;99.90
25582;DHT22;13462;50.764;4.332;2022-11-21T06:05:29;5.10;99.90
25582;DHT22;13462;50.764;4.332;2022-11-21T06:07:55;5.10;99.90
25582;DHT22;13462;50.764;4.332;2022-11-21T06:10:20;5.10;99.90
25582;DHT22;13462;50.764;4.332;2022-11-21T06:12:46;5.00;99.90
25582;DHT22;13462;50.764;4.332;2022-11-21T06:15:15;5.00;99.90
25582;DHT22;13462;50.764;4.332;2022-11-21T06:17:40;5.00;99.90
25582;DHT22;13462;50.764;4.332;2022-11-21T06:20:07;4.90;99.90
25582;DHT22;13462;50.764;4.332;2022-11-21T06:22:33;5.00;99.90
25582;DHT22;13462;50.764;4.332;2022-11-21T06:25:05;5.00;99.90
25582;DHT22;13462;50.764;4.332;2022-11-21T06:27:55;4.90;99.90
25582;DHT22;13462;50.764;4.332;2022-11-21T06:30:20;5.00;99.90
25582;DHT22;13462;50.764;4.332;2022-11-21T06:33:04;5.00;99.90
25582;DHT22;13462;50.764;4.332;2022-11-21T06:36:03;4.90;99.90
25582;DHT22;13462;50.764;4.332;2022-11-21T06:41:49;5.00;99.90
25582;DHT22;13462;50.764;4.332;2022-11-21T06:44:18;4.90;99.90
25582;DHT22;13462;50.764;4.332;2022-11-21T06:46:43;4.90;99.90
25582;DHT22;13462;50.764;4.332;2022-11-21T06:49:10;4.90;99.90
25582;DHT22;13462;50.764;4.332;2022-11-21T06:51:36;4.90;99.90
25582;DHT22;13462;50.764;4.332;2022-11-21T06:54:05;4.90;99.90
25582;DHT22;13462;50.764;4.332;2022-11-21T06:56:31;4.90;99.90
25582;DHT22;13462;50.764;4.332;2022-11-21T06:59:19;4.90;99.90
25582;DHT22;13462;50.764;4.332;2022-11-21T07:01:44;4.90;99.90
25582;DHT22;13462;50.764;4.332;2022-11-21T07:04:20;5.00;99.90
25582;DHT22;13462;50.764;4.332;2022-11-21T07:06:48;5.00;99.90
25582;DHT22;13462;50.764;4.332;2022-11-21T07:09:26;5.10;99.90
25582;DHT22;13462;50.764;4.332;2022-11-21T07:16:04;5.00;99.90
25582;DHT22;13462;50.764;4.332;2022-11-21T07:18:31;4.90;99.90
25582;DHT22;13462;50.764;4.332;2022-11-21T07:21:00;4.90;99.90
25582;DHT22;13462;50.764;4.332;2022-11-21T07:23:27;4.80;99.90
25582;DHT22;13462;50.764;4.332;2022-11-21T07:25:53;4.80;99.90
25582;DHT22;13462;50.764;4.332;2022-11-21T07:28:19;4.80;99.90
25582;DHT22;13462;50.764;4.332;2022-11-21T07:30:45;4.80;99.90
25582;DHT22;13462;50.764;4.332;2022-11-21T07:33:11;4.80;99.90
25582;DHT22;13462;50.764;4.332;2022-11-21T07:35:37;4.70;99.90
25582;DHT22;13462;50.764;4.332;2022-11-21T07:38:03;4.80;99.90
25582;DHT22;13462;50.764;4.332;2022-11-21T07:40:29;4.90;99.90
25582;DHT22;13462;50.764;4.332;2022-11-21T07:43:04;5.10;99.90
25582;DHT22;13462;50.764;4.332;2022-11-21T07:45:30;5.20;99.90
25582;DHT22;13462;50.764;4.332;2022-11-21T07:48:00;5.20;99.90
25582;DHT22;13462;50.764;4.332;2022-11-21T07:50:26;5.20;99.90
25582;DHT22;13462;50.764;4.332;2022-11-21T07:53:05;5.40;99.90
25582;DHT22;13462;50.764;4.332;2022-11-21T07:55:32;5.60;99.90
25582;DHT22;13462;50.764;4.332;2022-11-21T07:58:05;5.60;99.90
25582;DHT22;13462;50.764;4.332;2022-11-21T08:00:33;5.70;99.90
25582;DHT22;13462;50.764;4.332;2022-11-21T08:02:59;5.80;99.90
25582;DHT22;13462;50.764;4.332;2022-11-21T08:05:25;5.90;99.90
25582;DHT22;13462;50.764;4.332;2022-11-21T08:07:52;6.00;99.90
25582;DHT22;13462;50.764;4.332;2022-11-21T08:10:18;6.20;99.90
25582;DHT22;13462;50.764;4.332;2022-11-21T08:12:44;6.20;99.90
25582;DHT22;13462;50.764;4.332;2022-11-21T08:15:10;6.30;99.90
25582;DHT22;13462;50.764;4.332;2022-11-21T08:17:36;6.30;99.90
25582;DHT22;13462;50.764;4.332;2022-11-21T08:20:04;6.30;99.90
25582;DHT22;13462;50.764;4.332;2022-11-21T08:22:30;6.30;99.90
25582;DHT22;13462;50.764;4.332;2022-11-21T08:24:56;6.40;99.90
25582;DHT22;13462;50.764;4.332;2022-11-21T08:27:22;6.40;99.90
25582;DHT22;13462;50.764;4.332;2022-11-21T08:29:48;6.40;99.90
25582;DHT22;13462;50.764;4.332;2022-11-21T08:32:14;6.60;99.90
25582;DHT22;13462;50.764;4.332;2022-11-21T08:34:40;6.70;99.90
25582;DHT22;13462;50.764;4.332;2022-11-21T08:37:05;7.20;99.90
25582;DHT22;13462;50.764;4.332;2022-11-21T08:39:31;8.20;99.90
25582;DHT22;13462;50.764;4.332;2022-11-21T08:41:57;9.20;99.90
25582;DHT22;13462;50.764;4.332;2022-11-21T08:44:33;10.20;99.90
25582;DHT22;13462;50.764;4.332;2022-11-21T08:46:59;11.10;99.90
25582;DHT22;13462;50.764;4.332;2022-11-21T08:49:25;12.00;99.90
25582;DHT22;13462;50.764;4.332;2022-11-21T08:51:51;12.10;99.90
25582;DHT22;13462;50.764;4.332;2022-11-21T08:54:19;12.10;99.90
25582;DHT22;13462;50.764;4.332;2022-11-21T08:56:45;11.80;99.90
25582;DHT22;13462;50.764;4.332;2022-11-21T08:59:11;11.70;99.90
25582;DHT22;13462;50.764;4.332;2022-11-21T09:01:37;11.60;99.90
25582;DHT22;13462;50.764;4.332;2022-11-21T09:04:03;11.80;99.90
25582;DHT22;13462;50.764;4.332;2022-11-21T09:06:29;12.30;99.90
25582;DHT22;13462;50.764;4.332;2022-11-21T09:08:55;12.40;99.90
25582;DHT22;13462;50.764;4.332;2022-11-21T09:11:21;12.10;99.90
25582;DHT22;13462;50.764;4.332;2022-11-21T09:13:46;11.90;99.90
25582;DHT22;13462;50.764;4.332;2022-11-21T09:16:35;12.20;99.90
25582;DHT22;13462;50.764;4.332;2022-11-21T09:19:20;12.10;99.90
25582;DHT22;13462;50.764;4.332;2022-11-21T09:21:49;11.60;99.90
25582;DHT22;13462;50.764;4.332;2022-11-21T09:24:16;11.20;99.90
25582;DHT22;13462;50.764;4.332;2022-11-21T09:26:42;11.10;99.90
25582;DHT22;13462;50.764;4.332;2022-11-21T09:29:07;11.10;99.90
25582;DHT22;13462;50.764;4.332;2022-11-21T09:31:38;11.10;99.90
25582;DHT22;13462;50.764;4.332;2022-11-21T09:34:04;11.20;99.90
25582;DHT22;13462;50.764;4.332;2022-11-21T09:36:29;11.20;99.90
25582;DHT22;13462;50.764;4.332;2022-11-21T09:38:55;11.30;99.90
25582;DHT22;13462;50.764;4.332;2022-11-21T09:44:53;11.20;99.90
25582;DHT22;13462;50.764;4.332;2022-11-21T09:47:30;11.70;99.90
25582;DHT22;13462;50.764;4.332;2022-11-21T09:50:02;12.00;99.90
25582;DHT22;13462;50.764;4.332;2022-11-21T09:55:12;11.10;99.90
25582;DHT22;13462;50.764;4.332;2022-11-21T09:57:40;10.40;99.90
25582;DHT22;13462;50.764;4.332;2022-11-21T10:00:15;9.90;99.90
25582;DHT22;13462;50.764;4.332;2022-11-21T10:02:43;9.40;99.90
25582;DHT22;13462;50.764;4.332;2022-11-21T10:05:13;8.80;99.90
25582;DHT22;13462;50.764;4.332;2022-11-21T10:07:39;8.40;99.90
25582;DHT22;13462;50.764;4.332;2022-11-21T10:11:17;8.10;99.90
25582;DHT22;13462;50.764;4.332;2022-11-21T10:13:22;7.90;99.90
25582;DHT22;13462;50.764;4.332;2022-11-21T10:22:09;7.30;99.90
25582;DHT22;13462;50.764;4.332;2022-11-21T10:27:35;7.20;99.90
25582;DHT22;13462;50.764;4.332;2022-11-21T10:30:15;7.20;99.90
25582;DHT22;13462;50.764;4.332;2022-11-21T10:33:02;7.30;99.90
25582;DHT22;13462;50.764;4.332;2022-11-21T10:35:40;7.40;99.90
25582;DHT22;13462;50.764;4.332;2022-11-21T10:38:22;7.50;99.90
25582;DHT22;13462;50.764;4.332;2022-11-21T10:46:22;7.90;99.90
25582;DHT22;13462;50.764;4.332;2022-11-21T10:48:58;8.00;99.90
25582;DHT22;13462;50.764;4.332;2022-11-21T10:51:50;8.10;99.90
25582;DHT22;13462;50.764;4.332;2022-11-21T10:54:17;8.30;99.90
25582;DHT22;13462;50.764;4.332;2022-11-21T10:59:31;8.50;99.90
25582;DHT22;13462;50.764;4.332;2022-11-21T11:02:00;8.60;99.90
25582;DHT22;13462;50.764;4.332;2022-11-21T11:04:30;8.70;99.90
25582;DHT22;13462;50.764;4.332;2022-11-21T11:06:56;8.70;99.90
25582;DHT22;13462;50.764;4.332;2022-11-21T11:09:32;8.80;99.90
25582;DHT22;13462;50.764;4.332;2022-11-21T11:12:27;8.90;99.90
25582;DHT22;13462;50.764;4.332;2022-11-21T11:15:25;9.00;99.90
25582;DHT22;13462;50.764;4.332;2022-11-21T11:17:55;9.00;99.90
25582;DHT22;13462;50.764;4.332;2022-11-21T11:20:29;9.00;99.90
25582;DHT22;13462;50.764;4.332;2022-11-21T11:22:55;9.00;99.90
25582;DHT22;13462;50.764;4.332;2022-11-21T11:25:20;9.00;99.90
25582;DHT22;13462;50.764;4.332;2022-11-21T11:27:47;9.00;99.90
25582;DHT22;13462;50.764;4.332;2022-11-21T11:30:15;9.00;99.90
25582;DHT22;13462;50.764;4.332;2022-11-21T11:32:41;9.00;99.90
25582;DHT22;13462;50.764;4.332;2022-11-21T11:37:42;8.90;99.90
25582;DHT22;13462;50.764;4.332;2022-11-21T11:49:36;9.00;99.90
25582;DHT22;13462;50.764;4.332;2022-11-21T11:52:25;9.10;99.90
25582;DHT22;13462;50.764;4.332;2022-11-21T11:54:59;9.10;99.90
25582;DHT22;13462;50.764;4.332;2022-11-21T11:57:29;9.10;99.90
25582;DHT22;13462;50.764;4.332;2022-11-21T12:00:18;9.10;99.90
25582;DHT22;13462;50.764;4.332;2022-11-21T12:02:48;9.00;99.90
25582;DHT22;13462;50.764;4.332;2022-11-21T12:05:24;9.10;99.90
25582;DHT22;13462;50.764;4.332;2022-11-21T12:10:47;9.20;99.90
25582;DHT22;13462;50.764;4.332;2022-11-21T12:13:33;9.20;99.90
25582;DHT22;13462;50.764;4.332;2022-11-21T12:16:03;9.20;99.90
25582;DHT22;13462;50.764;4.332;2022-11-21T12:18:49;9.30;99.90
25582;DHT22;13462;50.764;4.332;2022-11-21T12:21:16;9.40;99.90
25582;DHT22;13462;50.764;4.332;2022-11-21T12:23:56;9.40;99.90
25582;DHT22;13462;50.764;4.332;2022-11-21T12:34:14;9.30;99.90
25582;DHT22;13462;50.764;4.332;2022-11-21T12:36:52;9.30;99.90
25582;DHT22;13462;50.764;4.332;2022-11-21T12:39:46;9.40;99.90
25582;DHT22;13462;50.764;4.332;2022-11-21T12:45:38;9.50;99.90
25582;DHT22;13462;50.764;4.332;2022-11-21T12:54:50;10.00;99.90
25582;DHT22;13462;50.764;4.332;2022-11-21T12:57:18;10.10;99.90
25582;DHT22;13462;50.764;4.332;2022-11-21T13:05:31;9.80;99.90
25582;DHT22;13462;50.764;4.332;2022-11-21T13:08:06;9.70;99.90
25582;DHT22;13462;50.764;4.332;2022-11-21T13:10:32;9.70;99.90
25582;DHT22;13462;50.764;4.332;2022-11-21T13:13:05;9.60;99.90
25582;DHT22;13462;50.764;4.332;2022-11-21T13:15:36;9.60;99.90
25582;DHT22;13462;50.764;4.332;2022-11-21T13:18:16;9.50;99.90
25582;DHT22;13462;50.764;4.332;2022-11-21T13:20:51;9.60;99.90
25582;DHT22;13462;50.764;4.332;2022-11-21T13:23:38;9.60;99.90
25582;DHT22;13462;50.764;4.332;2022-11-21T13:31:33;9.60;99.90
25582;DHT22;13462;50.764;4.332;2022-11-21T13:34:01;9.50;99.90
25582;DHT22;13462;50.764;4.332;2022-11-21T13:47:03;9.40;99.90
25582;DHT22;13462;50.764;4.332;2022-11-21T13:57:45;9.50;99.90
25582;DHT22;13462;50.764;4.332;2022-11-21T14:03:32;9.60;99.90
25582;DHT22;13462;50.764;4.332;2022-11-21T14:06:40;9.60;99.90
25582;DHT22;13462;50.764;4.332;2022-11-21T14:09:33;9.50;99.90
25582;DHT22;13462;50.764;4.332;2022-11-21T14:12:01;9.40;99.90
25582;DHT22;13462;50.764;4.332;2022-11-21T14:14:39;9.50;99.90
25582;DHT22;13462;50.764;4.332;2022-11-21T14:19:49;9.40;99.90
25582;DHT22;13462;50.764;4.332;2022-11-21T14:25:07;9.40;99.90
25582;DHT22;13462;50.764;4.332;2022-11-21T14:27:37;9.30;99.90
25582;DHT22;13462;50.764;4.332;2022-11-21T14:30:04;9.30;99.90
25582;DHT22;13462;50.764;4.332;2022-11-21T14:32:30;9.20;99.90
25582;DHT22;13462;50.764;4.332;2022-11-21T14:35:17;9.10;99.90
25582;DHT22;13462;50.764;4.332;2022-11-21T14:37:45;9.10;99.90
25582;DHT22;13462;50.764;4.332;2022-11-21T14:40:13;9.00;99.90
25582;DHT22;13462;50.764;4.332;2022-11-21T14:42:43;9.00;99.90
25582;DHT22;13462;50.764;4.332;2022-11-21T14:45:19;9.00;99.90
25582;DHT22;13462;50.764;4.332;2022-11-21T14:47:46;9.00;99.90
25582;DHT22;13462;50.764;4.332;2022-11-21T14:50:33;8.90;99.90
25582;DHT22;13462;50.764;4.332;2022-11-21T14:53:00;8.90;99.90
25582;DHT22;13462;50.764;4.332;2022-11-21T14:55:30;9.00;99.90
25582;DHT22;13462;50.764;4.332;2022-11-21T14:57:59;8.90;99.90
25582;DHT22;13462;50.764;4.332;2022-11-21T15:00:27;8.90;99.90
25582;DHT22;13462;50.764;4.332;2022-11-21T15:02:56;8.80;99.90
25582;DHT22;13462;50.764;4.332;2022-11-21T15:05:31;8.80;99.90
25582;DHT22;13462;50.764;4.332;2022-11-21T15:07:57;8.80;99.90
25582;DHT22;13462;50.764;4.332;2022-11-21T15:10:29;8.80;99.90
25582;DHT22;13462;50.764;4.332;2022-11-21T15:13:03;8.80;99.90
25582;DHT22;13462;50.764;4.332;2022-11-21T15:15:42;8.80;99.90
25582;DHT22;13462;50.764;4.332;2022-11-21T15:18:22;8.80;99.90
25582;DHT22;13462;50.764;4.332;2022-11-21T15:20:52;8.70;99.90
25582;DHT22;13462;50.764;4.332;2022-11-21T15:23:44;8.80;99.90
25582;DHT22;13462;50.764;4.332;2022-11-21T15:26:40;8.70;99.90
25582;DHT22;13462;50.764;4.332;2022-11-21T15:29:17;8.70;99.90
25582;DHT22;13462;50.764;4.332;2022-11-21T15:31:44;8.80;99.90
25582;DHT22;13462;50.764;4.332;2022-11-21T15:34:09;8.80;99.90
25582;DHT22;13462;50.764;4.332;2022-11-21T15:36:35;8.80;99.90
25582;DHT22;13462;50.764;4.332;2022-11-21T15:39:03;8.80;99.90
25582;DHT22;13462;50.764;4.332;2022-11-21T15:41:30;8.70;99.90
25582;DHT22;13462;50.764;4.332;2022-11-21T15:46:36;8.70;99.90
25582;DHT22;13462;50.764;4.332;2022-11-21T15:49:08;8.80;99.90
25582;DHT22;13462;50.764;4.332;2022-11-21T15:51:42;8.80;99.90
25582;DHT22;13462;50.764;4.332;2022-11-21T15:54:25;8.80;99.90
25582;DHT22;13462;50.764;4.332;2022-11-21T15:56:51;8.80;99.90
25582;DHT22;13462;50.764;4.332;2022-11-21T15:59:17;8.70;99.90
25582;DHT22;13462;50.764;4.332;2022-11-21T16:01:44;8.80;99.90
25582;DHT22;13462;50.764;4.332;2022-11-21T16:04:11;8.80;99.90
25582;DHT22;13462;50.764;4.332;2022-11-21T16:06:36;8.70;99.90
25582;DHT22;13462;50.764;4.332;2022-11-21T16:09:02;8.70;99.90
25582;DHT22;13462;50.764;4.332;2022-11-21T16:11:33;8.70;99.90
25582;DHT22;13462;50.764;4.332;2022-11-21T16:14:03;8.70;99.90
25582;DHT22;13462;50.764;4.332;2022-11-21T16:16:31;8.60;99.90
25582;DHT22;13462;50.764;4.332;2022-11-21T16:18:57;8.70;99.90
25582;DHT22;13462;50.764;4.332;2022-11-21T16:21:23;8.80;99.90
25582;DHT22;13462;50.764;4.332;2022-11-21T16:23:49;8.70;99.90
25582;DHT22;13462;50.764;4.332;2022-11-21T16:26:15;8.70;99.90
25582;DHT22;13462;50.764;4.332;2022-11-21T16:28:41;8.70;99.90
25582;DHT22;13462;50.764;4.332;2022-11-21T16:31:20;8.70;99.90
25582;DHT22;13462;50.764;4.332;2022-11-21T16:33:45;8.70;99.90
25582;DHT22;13462;50.764;4.332;2022-11-21T16:36:11;8.70;99.90
25582;DHT22;13462;50.764;4.332;2022-11-21T16:38:37;8.60;99.90
25582;DHT22;13462;50.764;4.332;2022-11-21T16:41:03;8.60;99.90
25582;DHT22;13462;50.764;4.332;2022-11-21T16:43:31;8.50;99.90
25582;DHT22;13462;50.764;4.332;2022-11-21T16:46:07;8.50;99.90
25582;DHT22;13462;50.764;4.332;2022-11-21T16:48:33;8.40;99.90
25582;DHT22;13462;50.764;4.332;2022-11-21T16:51:17;8.50;99.90
25582;DHT22;13462;50.764;4.332;2022-11-21T16:53:44;8.40;99.90
25582;DHT22;13462;50.764;4.332;2022-11-21T16:56:10;8.40;99.90
25582;DHT22;13462;50.764;4.332;2022-11-21T16:58:38;8.40;99.90
25582;DHT22;13462;50.764;4.332;2022-11-21T17:01:17;8.40;99.90
25582;DHT22;13462;50.764;4.332;2022-11-21T17:03:44;8.40;99.90
25582;DHT22;13462;50.764;4.332;2022-11-21T17:06:12;8.40;99.90
25582;DHT22;13462;50.764;4.332;2022-11-21T17:08:41;8.40;99.90
25582;DHT22;13462;50.764;4.332;2022-11-21T17:11:18;8.40;99.90
25582;DHT22;13462;50.764;4.332;2022-11-21T17:13:45;8.40;99.90
25582;DHT22;13462;50.764;4.332;2022-11-21T17:16:12;8.40;99.90
25582;DHT22;13462;50.764;4.332;2022-11-21T17:18:38;8.40;99.90
25582;DHT22;13462;50.764;4.332;2022-11-21T17:21:05;8.40;99.90
25582;DHT22;13462;50.764;4.332;2022-11-21T17:23:32;8.40;99.90
25582;DHT22;13462;50.764;4.332;2022-11-21T17:26:18;8.40;99.90
25582;DHT22;13462;50.764;4.332;2022-11-21T17:28:53;8.30;99.90
25582;DHT22;13462;50.764;4.332;2022-11-21T17:31:20;8.30;99.90
25582;DHT22;13462;50.764;4.332;2022-11-21T17:33:46;8.30;99.90
25582;DHT22;13462;50.764;4.332;2022-11-21T17:36:23;8.20;99.90
25582;DHT22;13462;50.764;4.332;2022-11-21T17:38:50;8.20;99.90
25582;DHT22;13462;50.764;4.332;2022-11-21T17:41:17;8.20;99.90
25582;DHT22;13462;50.764;4.332;2022-11-21T17:43:44;8.20;99.90
25582;DHT22;13462;50.764;4.332;2022-11-21T17:46:17;8.20;99.90
25582;DHT22;13462;50.764;4.332;2022-11-21T17:48:44;8.20;99.90
25582;DHT22;13462;50.764;4.332;2022-11-21T17:51:15;8.10;99.90
25582;DHT22;13462;50.764;4.332;2022-11-21T17:53:43;8.10;99.90